KBIL

Billings Logan International Airport

Billings, Montana, USA
METAR KBIL 172053Z 23012KT 10SM FEW040 M06/M11 A3031 RMK AO2 SLP318 T10561106 58027
Observed Flight Rules
Nov-17 @ 20:53 UTC (an hour ago) Visual Flight Rules
Wind Visibility Clouds
230° at 12 knots 10 miles
  • Few at 4,000' AGL
Temperatures Readings
Current -6°C / 21°F
Dewpoint -11°C / 12°F
Humidity 68%
Altimeter 30.31" Hg
Pressure 1031.8 hPa
Elevation 1091
METAR KBIL 172053Z 23012KT 10SM FEW040 M06/M11 A3031 RMK AO2 SLP318 T10561106 58027
Observed Flight Rules
Nov-17 @ 20:53 UTC
(an hour ago)
VFR
Wind Visibility
230° at 12 knots 10 miles
Clouds
  • Few at 4,000' AGL
Temperature Dewpoint
-6°C / 21°F -11°C / 12°F
Humidity Altimeter Pressure
68% 30.31" Hg 1031.8 hPa